createdAt,value
2017-05-12T00:00:02.494Z,89.03
2017-05-12T00:01:14.925Z,89.32
2017-05-12T00:02:27.842Z,89.41
2017-05-12T00:03:40.272Z,89.12
2017-05-12T00:04:53.199Z,89.22
2017-05-12T00:06:05.628Z,89.12
2017-05-12T00:07:17.566Z,89.03
2017-05-12T00:08:29.507Z,89.41
2017-05-12T00:09:42.629Z,89.12
2017-05-12T00:10:55.550Z,88.84
2017-05-12T00:12:08.465Z,88.74
2017-05-12T00:13:21.386Z,88.74
2017-05-12T00:14:34.306Z,89.22
2017-05-12T00:15:47.427Z,88.93
2017-05-12T00:16:59.879Z,89.51
2017-05-12T00:18:12.309Z,88.74
2017-05-12T00:19:25.229Z,89.03
2017-05-12T00:20:38.453Z,89.03
2017-05-12T00:21:51.369Z,89.03
2017-05-12T00:23:04.294Z,89.03
2017-05-12T00:24:17.210Z,89.03
2017-05-12T00:25:29.647Z,89.03
2017-05-12T00:26:42.883Z,89.51
2017-05-12T00:27:55.879Z,89.51
2017-05-12T00:29:08.382Z,89.22
2017-05-12T00:30:21.384Z,89.41
2017-05-12T00:31:34.603Z,89.99
2017-05-12T00:32:47.103Z,89.41
2017-05-12T00:34:00.120Z,89.89
2017-05-12T00:35:13.120Z,90.08
2017-05-12T00:36:25.619Z,90.08
2017-05-12T00:37:38.819Z,90.08
2017-05-12T00:38:51.329Z,89.61
2017-05-12T00:40:04.329Z,90.08
2017-05-12T00:41:17.332Z,90.08
2017-05-12T00:42:30.532Z,90.47
2017-05-12T00:43:43.527Z,90.37
2017-05-12T00:44:56.521Z,90.75
2017-05-12T00:46:09.521Z,91.14
2017-05-12T00:47:22.538Z,90.95
2017-05-12T00:48:35.038Z,90.66
2017-05-12T00:49:48.024Z,91.05
2017-05-12T00:51:01.013Z,91.14
2017-05-12T00:52:13.995Z,91.42
2017-05-12T00:53:27.181Z,91.05
2017-05-12T00:54:40.163Z,91.42
2017-05-12T00:55:53.150Z,91.42
2017-05-12T00:57:05.638Z,91.24
2017-05-12T00:58:17.135Z,91.62
2017-05-12T00:59:30.120Z,91.33
2017-05-12T01:00:42.605Z,91.72
2017-05-12T01:01:55.564Z,91.42
2017-05-12T01:03:08.463Z,91.24
2017-05-12T01:04:21.371Z,91.42
2017-05-12T01:05:34.310Z,91.42
2017-05-12T01:06:47.224Z,91.81
2017-05-12T01:07:59.635Z,92
2017-05-12T01:09:12.046Z,91.81
2017-05-12T01:10:24.989Z,91.67
2017-05-12T01:11:37.886Z,92.39
2017-05-12T01:12:50.297Z,92.91
2017-05-12T01:14:03.198Z,92.63
2017-05-12T01:15:16.404Z,92.86
2017-05-12T01:16:29.305Z,92.54
2017-05-12T01:17:41.715Z,92.96
2017-05-12T01:18:54.132Z,93.4
2017-05-12T01:20:06.538Z,93.35
2017-05-12T01:21:18.956Z,93.3
2017-05-12T01:22:31.852Z,93.78
2017-05-12T01:23:44.748Z,93.54
2017-05-12T01:24:57.646Z,93.59
2017-05-12T01:26:10.546Z,93.78
2017-05-12T01:27:23.451Z,93.78
2017-05-12T01:28:35.861Z,93.82
2017-05-12T01:29:48.271Z,93.78
2017-05-12T01:31:01.172Z,94.02
2017-05-12T01:32:14.288Z,93.88
2017-05-12T01:33:26.704Z,94.26
2017-05-12T01:34:39.608Z,94.35
2017-05-12T01:35:52.511Z,94.93
2017-05-12T01:37:05.220Z,94.93
2017-05-12T01:38:18.123Z,94.84
2017-05-12T01:39:31.023Z,94.64
2017-05-12T01:40:43.436Z,94.45
2017-05-12T01:41:56.337Z,94.64
2017-05-12T01:43:22.997Z,94.64
2017-05-12T01:44:35.418Z,94.54
2017-05-12T01:45:48.324Z,94.54
2017-05-12T01:47:01.227Z,94.74
2017-05-12T01:48:14.328Z,94.79
2017-05-12T01:49:26.743Z,94.54
2017-05-12T01:50:39.651Z,94.64
2017-05-12T01:51:52.066Z,95.21
2017-05-12T01:53:04.967Z,95.51
2017-05-12T01:54:17.878Z,95.41
2017-05-12T01:55:30.783Z,95.12
2017-05-12T01:56:43.682Z,95.7
2017-05-12T01:57:56.585Z,95.21
2017-05-12T01:59:09.786Z,95.31
2017-05-12T02:00:22.690Z,94.4
2017-05-12T02:01:35.590Z,94.84
2017-05-12T02:02:48.493Z,94.88
2017-05-12T02:04:01.395Z,94.45
2017-05-12T02:05:14.008Z,94.74
2017-05-12T02:06:26.909Z,95.55
2017-05-12T02:07:39.813Z,95.31
2017-05-12T02:08:52.721Z,95.41
2017-05-12T02:10:05.629Z,95.41
2017-05-12T02:11:18.044Z,95.12
2017-05-12T02:12:30.944Z,95.31
2017-05-12T02:13:43.850Z,95.6
2017-05-12T02:14:56.757Z,95.51
2017-05-12T02:16:09.656Z,95.31
2017-05-12T02:17:22.559Z,95.51
2017-05-12T02:18:34.973Z,95.21
2017-05-12T02:19:47.389Z,95.21
2017-05-12T02:21:00.491Z,95.31
2017-05-12T02:22:12.906Z,95.12
2017-05-12T02:23:25.809Z,95.03
2017-05-12T02:24:38.714Z,95.41
2017-05-12T02:25:51.618Z,95.12
2017-05-12T02:27:04.521Z,95.12
2017-05-12T02:28:17.420Z,95.41
2017-05-12T02:29:30.322Z,95.7
2017-05-12T02:30:43.219Z,95.41
2017-05-12T02:31:56.129Z,95.03
2017-05-12T02:33:08.052Z,95.41
2017-05-12T02:34:20.948Z,95.51
2017-05-12T02:35:33.848Z,95.31
2017-05-12T02:36:46.750Z,95.21
2017-05-12T02:37:59.951Z,95.51
2017-05-12T02:39:12.364Z,95.51
2017-05-12T02:40:25.267Z,95.51
2017-05-12T02:41:38.165Z,95.31
2017-05-12T02:42:51.265Z,95.12
2017-05-12T02:44:04.170Z,95.41
2017-05-12T02:45:17.114Z,95.51
2017-05-12T02:46:29.155Z,95.51
2017-05-12T02:47:42.202Z,95.12
2017-05-12T02:48:55.447Z,95.41
2017-05-12T02:50:07.989Z,95.31
2017-05-12T02:51:21.038Z,95.21
2017-05-12T02:52:34.081Z,95.51
2017-05-12T02:53:47.136Z,95.31
2017-05-12T02:55:00.180Z,95.31
2017-05-12T02:56:12.217Z,95.31
2017-05-12T02:57:25.256Z,95.51
2017-05-12T02:58:38.329Z,95.31
2017-05-12T02:59:51.373Z,95.21
2017-05-12T03:01:04.416Z,95.7
2017-05-12T03:02:17.464Z,95.21
2017-05-12T03:03:28.910Z,95.21
2017-05-12T03:04:41.837Z,95.31
2017-05-12T03:05:54.798Z,95.12
2017-05-12T03:07:07.723Z,95.12
2017-05-12T03:08:20.154Z,95.12
2017-05-12T03:09:33.076Z,95.21
2017-05-12T03:10:45.504Z,95.12
2017-05-12T03:11:58.445Z,95.51
2017-05-12T03:13:10.874Z,95.31
2017-05-12T03:14:23.800Z,95.6
2017-05-12T03:15:36.429Z,95.51
2017-05-12T03:16:48.857Z,95.41
2017-05-12T03:18:01.782Z,95.31
2017-05-12T03:19:14.673Z,95.41
2017-05-12T03:20:27.455Z,95.41
2017-05-12T03:21:40.537Z,95.89
2017-05-12T03:22:53.319Z,95.51
2017-05-12T03:24:06.104Z,95.7
2017-05-12T03:25:18.885Z,95.31
2017-05-12T03:26:31.662Z,95.21
2017-05-12T03:27:44.438Z,95.31
2017-05-12T03:28:56.258Z,94.93
2017-05-12T03:30:08.554Z,95.6
2017-05-12T03:31:21.334Z,95.65
2017-05-12T03:32:34.415Z,95.36
2017-05-12T03:33:47.216Z,95.36
2017-05-12T03:34:59.994Z,95.26
2017-05-12T03:36:12.302Z,95.56
2017-05-12T03:37:25.280Z,95.75
2017-05-12T03:38:38.092Z,95.75
2017-05-12T03:39:50.884Z,95.46
2017-05-12T03:41:03.666Z,95.17
2017-05-12T03:42:16.448Z,95.26
2017-05-12T03:43:29.526Z,95.46
2017-05-12T03:44:42.311Z,95.07
2017-05-12T03:45:55.094Z,94.98
2017-05-12T03:47:07.869Z,94.69
2017-05-12T03:48:20.418Z,94.59
2017-05-12T03:49:33.315Z,94.89
2017-05-12T03:50:45.726Z,94.12
2017-05-12T03:51:58.620Z,94.4
2017-05-12T03:53:10.540Z,94.4
2017-05-12T03:54:23.434Z,94.4
2017-05-12T03:55:35.847Z,93.93
2017-05-12T03:56:48.252Z,93.83
2017-05-12T03:58:01.158Z,93.93
2017-05-12T03:59:13.077Z,93.83
2017-05-12T04:00:25.980Z,93.54
2017-05-12T04:01:38.881Z,93.73
2017-05-12T04:02:51.791Z,93.63
2017-05-12T04:04:04.688Z,93.93
2017-05-12T04:05:17.104Z,93.83
2017-05-12T04:06:30.008Z,94.02
2017-05-12T04:07:42.908Z,93.73
2017-05-12T04:08:55.814Z,93.54
2017-05-12T04:10:08.916Z,93.83
2017-05-12T04:11:21.818Z,94.02
2017-05-12T04:12:34.718Z,93.93
2017-05-12T04:13:47.617Z,93.63
2017-05-12T04:15:00.514Z,94.02
2017-05-12T04:16:13.421Z,93.21
2017-05-12T04:17:26.319Z,92.91
2017-05-12T04:18:38.239Z,92.63
2017-05-12T04:19:50.651Z,92.82
2017-05-12T04:21:03.849Z,92.82
2017-05-12T04:22:16.754Z,92.82
2017-05-12T04:23:29.651Z,92.54
2017-05-12T04:24:42.548Z,92.63
2017-05-12T04:25:55.445Z,92.63
2017-05-12T04:27:08.650Z,92.87
2017-05-12T04:28:21.545Z,93.16
2017-05-12T04:29:33.954Z,93.54
2017-05-12T04:30:46.864Z,93.16
2017-05-12T04:32:00.066Z,93.16
2017-05-12T04:33:12.970Z,92.87
2017-05-12T04:34:25.894Z,92.87
2017-05-12T04:35:38.323Z,93.26
2017-05-12T04:36:51.241Z,93.16
2017-05-12T04:38:03.674Z,93.06
2017-05-12T04:39:16.593Z,93.26
2017-05-12T04:40:29.017Z,93.54
2017-05-12T04:41:41.932Z,93.93
2017-05-12T04:42:55.046Z,93.83
2017-05-12T04:44:07.476Z,93.93
2017-05-12T04:45:19.410Z,93.73
2017-05-12T04:46:31.838Z,94.02
2017-05-12T04:47:44.755Z,93.63
2017-05-12T04:48:57.876Z,94.4
2017-05-12T04:50:10.797Z,94.21
2017-05-12T04:51:23.712Z,94.5
2017-05-12T04:52:36.628Z,94.79
2017-05-12T04:53:49.847Z,94.89
2017-05-12T04:55:02.763Z,94.21
2017-05-12T04:56:15.675Z,95.17
2017-05-12T04:57:28.101Z,94.89
2017-05-12T04:58:41.018Z,94.31
2017-05-12T04:59:54.139Z,94.4
2017-05-12T05:01:06.564Z,94.31
2017-05-12T05:02:19.483Z,94.12
2017-05-12T05:03:32.402Z,94.21
2017-05-12T05:04:45.326Z,94.31
2017-05-12T05:05:57.753Z,94.69
2017-05-12T05:07:10.176Z,94.59
2017-05-12T05:08:23.092Z,94.89
2017-05-12T05:09:35.515Z,94.59
2017-05-12T05:10:48.144Z,94.69
2017-05-12T05:12:01.062Z,94.79
2017-05-12T05:13:13.525Z,95.56
2017-05-12T05:14:25.952Z,94.4
2017-05-12T05:15:38.873Z,95.36
2017-05-12T05:16:51.303Z,94.4
2017-05-12T05:18:03.727Z,94.69
2017-05-12T05:19:16.151Z,94.59
2017-05-12T05:20:29.068Z,94.79
2017-05-12T05:21:41.496Z,94.59
2017-05-12T05:22:54.410Z,94.5
2017-05-12T05:24:07.323Z,94.69
2017-05-12T05:25:20.241Z,94.64
2017-05-12T05:26:33.155Z,95.36
2017-05-12T05:27:46.115Z,94.69
2017-05-12T05:28:58.542Z,94.89
2017-05-12T05:30:11.459Z,94.59
2017-05-12T05:31:23.880Z,94.69
2017-05-12T05:32:36.606Z,94.69
2017-05-12T05:33:49.521Z,94.93
2017-05-12T05:35:02.445Z,94.84
2017-05-12T05:36:15.373Z,94.84
2017-05-12T05:37:42.346Z,94.74
2017-05-12T05:38:54.776Z,94.84
2017-05-12T05:40:07.700Z,94.84
2017-05-12T05:41:19.639Z,94.93
2017-05-12T05:42:32.755Z,94.35
2017-05-12T05:43:45.182Z,94.35
2017-05-12T05:44:58.114Z,94.54
2017-05-12T05:46:11.040Z,93.78
2017-05-12T05:47:23.463Z,93.88
2017-05-12T05:48:36.576Z,93.68
2017-05-12T05:49:49.489Z,93.59
2017-05-12T05:51:02.404Z,93.4
2017-05-12T05:52:15.318Z,93.78
2017-05-12T05:53:27.949Z,93.11
2017-05-12T05:54:40.873Z,93.01
2017-05-12T05:55:53.828Z,92.91
2017-05-12T05:57:06.258Z,93.11
2017-05-12T05:58:18.684Z,92.86
2017-05-12T05:59:31.798Z,92.63
2017-05-12T06:00:44.730Z,92.82
2017-05-12T06:01:57.647Z,92.63
2017-05-12T06:03:10.071Z,92.63
2017-05-12T06:04:22.496Z,92.82
2017-05-12T06:05:35.409Z,93.01
2017-05-12T06:06:48.327Z,92.82
2017-05-12T06:08:01.240Z,92.63
2017-05-12T06:09:14.153Z,92.72
2017-05-12T06:10:26.781Z,92.72
2017-05-12T06:11:39.704Z,93.11
2017-05-12T06:12:52.654Z,93.11
2017-05-12T06:14:05.712Z,93.11
2017-05-12T06:15:18.473Z,93.3
2017-05-12T06:16:31.539Z,93.11
2017-05-12T06:17:44.095Z,93.11
2017-05-12T06:18:57.153Z,93.4
2017-05-12T06:20:10.256Z,93.21
2017-05-12T06:21:23.313Z,93.3
2017-05-12T06:22:36.376Z,93.11
2017-05-12T06:23:48.932Z,93.11
2017-05-12T06:25:01.995Z,92.72
2017-05-12T06:26:15.351Z,93.11
2017-05-12T06:27:27.907Z,93.59
2017-05-12T06:28:40.972Z,93.4
2017-05-12T06:29:54.027Z,93.11
2017-05-12T06:31:07.086Z,92.82
2017-05-12T06:32:20.347Z,92.91
2017-05-12T06:33:32.908Z,92.91
2017-05-12T06:34:45.965Z,93.3
2017-05-12T06:35:59.024Z,93.3
2017-05-12T06:37:11.880Z,93.21
2017-05-12T06:38:23.435Z,93.01
2017-05-12T06:39:36.491Z,93.11
2017-05-12T06:40:49.553Z,93.01
2017-05-12T06:42:02.610Z,93.11
2017-05-12T06:43:15.165Z,92.82
2017-05-12T06:44:27.727Z,92.82
2017-05-12T06:45:40.783Z,92.91
2017-05-12T06:46:53.845Z,93.3
2017-05-12T06:48:06.364Z,93.01
2017-05-12T06:49:18.801Z,93.21
2017-05-12T06:50:31.719Z,93.3
2017-05-12T06:51:44.638Z,92.34
2017-05-12T06:52:57.556Z,93.3
2017-05-12T06:54:09.699Z,93.11
2017-05-12T06:55:22.120Z,93.11
2017-05-12T06:56:35.040Z,92.63
2017-05-12T06:57:47.960Z,92.63
2017-05-12T06:59:00.872Z,92.72
2017-05-12T07:00:13.788Z,92.39
2017-05-12T07:01:26.705Z,92.72
2017-05-12T07:02:39.128Z,93.26
2017-05-12T07:03:52.043Z,93.26
2017-05-12T07:05:04.468Z,93.06
2017-05-12T07:06:16.892Z,93.26
2017-05-12T07:07:29.811Z,93.26
2017-05-12T07:08:42.246Z,93.16
2017-05-12T07:09:55.372Z,93.73
2017-05-12T07:11:08.287Z,93.35
2017-05-12T07:12:20.219Z,93.44
2017-05-12T07:13:33.134Z,93.63
2017-05-12T07:14:46.062Z,93.54
2017-05-12T07:15:59.175Z,93.93
2017-05-12T07:17:12.090Z,93.63
2017-05-12T07:18:25.005Z,93.54
2017-05-12T07:19:37.426Z,94.12
2017-05-12T07:20:50.350Z,93.54
2017-05-12T07:22:03.301Z,93.93
2017-05-12T07:23:16.360Z,93.83
2017-05-12T07:24:28.920Z,94.21
2017-05-12T07:25:41.975Z,94.31
2017-05-12T07:26:54.831Z,94.89
2017-05-12T07:28:07.890Z,94.79
2017-05-12T07:29:20.946Z,94.31
2017-05-12T07:30:34.012Z,94.4
2017-05-12T07:31:46.283Z,94.5
2017-05-12T07:32:59.342Z,94.89
2017-05-12T07:34:12.386Z,94.4
2017-05-12T07:35:24.926Z,94.21
2017-05-12T07:36:37.963Z,94.31
2017-05-12T07:37:51.305Z,94.89
2017-05-12T07:39:04.348Z,94.21
2017-05-12T07:40:17.388Z,93.63
2017-05-12T07:41:29.429Z,93.63
2017-05-12T07:42:42.478Z,93.54
2017-05-12T07:43:55.516Z,93.54
2017-05-12T07:45:08.561Z,94.21
2017-05-12T07:46:21.602Z,94.89
2017-05-12T07:47:34.143Z,94.69
2017-05-12T07:48:47.490Z,94.64
2017-05-12T07:50:00.533Z,94.4
2017-05-12T07:51:13.072Z,94.4
2017-05-12T07:52:25.610Z,93.73
2017-05-12T07:53:38.957Z,93.35
2017-05-12T07:54:51.999Z,93.93
2017-05-12T07:56:05.043Z,93.73
2017-05-12T07:57:17.567Z,93.54
2017-05-12T07:58:30.053Z,92.87
2017-05-12T07:59:43.035Z,93.06
2017-05-12T08:00:55.519Z,93.06
2017-05-12T08:02:08.498Z,92.49
2017-05-12T08:03:21.537Z,92.68
2017-05-12T08:04:34.027Z,92.77
2017-05-12T08:05:47.008Z,92.58
2017-05-12T08:06:59.994Z,92.68
2017-05-12T08:08:12.976Z,92.68
2017-05-12T08:09:25.459Z,92.49
2017-05-12T08:10:38.439Z,92.3
2017-05-12T08:11:51.426Z,92.2
2017-05-12T08:13:04.408Z,92.39
2017-05-12T08:14:17.391Z,91.91
2017-05-12T08:15:30.126Z,91.91
2017-05-12T08:16:42.610Z,92.01
2017-05-12T08:17:55.554Z,91.82
2017-05-12T08:19:08.426Z,91.72
2017-05-12T08:20:20.813Z,92.01
2017-05-12T08:21:33.686Z,91.63
2017-05-12T08:22:46.070Z,91.72
2017-05-12T08:23:58.469Z,92.1
2017-05-12T08:25:10.858Z,92.01
2017-05-12T08:26:23.539Z,91.63
2017-05-12T08:27:36.405Z,91.96
2017-05-12T08:28:49.273Z,91.86
2017-05-12T08:30:01.655Z,91.91
2017-05-12T08:31:14.535Z,91.91
2017-05-12T08:32:27.701Z,91.82
2017-05-12T08:33:40.061Z,92.3
2017-05-12T08:34:52.849Z,91.82
2017-05-12T08:36:05.639Z,91.82
2017-05-12T08:37:18.627Z,91.82
2017-05-12T08:38:31.444Z,91.67
2017-05-12T08:39:43.746Z,91.58
2017-05-12T08:40:56.548Z,91.24
2017-05-12T08:42:09.330Z,91.29
2017-05-12T08:43:22.410Z,91.14
2017-05-12T08:44:35.196Z,91.43
2017-05-12T08:45:47.982Z,91.24
2017-05-12T08:47:00.287Z,91.53
2017-05-12T08:48:13.272Z,91.34
2017-05-12T08:49:25.577Z,90.86
2017-05-12T08:50:38.362Z,91.43
2017-05-12T08:51:50.672Z,91.43
2017-05-12T08:53:02.975Z,90.86
2017-05-12T08:54:15.479Z,91.43
2017-05-12T08:55:27.303Z,91.34
2017-05-12T08:56:40.085Z,91.05
2017-05-12T08:57:52.380Z,91.05
2017-05-12T08:59:05.475Z,90.57
2017-05-12T09:00:17.771Z,90.86
2017-05-12T09:01:30.567Z,90.67
2017-05-12T09:02:43.347Z,90.67
2017-05-12T09:03:55.647Z,91.05
2017-05-12T09:05:22.535Z,90.57
2017-05-12T09:06:35.326Z,90.57
2017-05-12T09:07:48.107Z,90.86
2017-05-12T09:09:00.405Z,90.76
2017-05-12T09:10:13.181Z,90.76
2017-05-12T09:11:25.484Z,91.14
2017-05-12T09:12:36.817Z,90.67
2017-05-12T09:13:49.599Z,90.53
2017-05-12T09:15:02.382Z,91.49
2017-05-12T09:16:15.160Z,90.86
2017-05-12T09:17:26.972Z,90.57
2017-05-12T09:18:39.748Z,91.1
2017-05-12T09:19:52.524Z,90.67
2017-05-12T09:21:05.610Z,90.57
2017-05-12T09:22:17.906Z,90.86
2017-05-12T09:23:30.683Z,91.14
2017-05-12T09:24:42.984Z,91.39
2017-05-12T09:25:55.760Z,91
2017-05-12T09:27:08.544Z,91
2017-05-12T09:28:20.840Z,91.34
2017-05-12T09:29:33.145Z,91.34
2017-05-12T09:30:45.923Z,91.14
2017-05-12T09:31:59.010Z,91.29
2017-05-12T09:33:11.788Z,91.1
2017-05-12T09:34:24.085Z,90.81
2017-05-12T09:35:36.382Z,91.29
2017-05-12T09:36:49.362Z,91.34
2017-05-12T09:38:02.147Z,91.34
2017-05-12T09:39:14.444Z,91.34
2017-05-12T09:40:27.222Z,91
2017-05-12T09:41:40.000Z,91.24
2017-05-12T09:42:52.797Z,91.39
2017-05-12T09:44:05.172Z,91.24
2017-05-12T09:45:18.030Z,91.14
2017-05-12T09:46:30.887Z,91.24
2017-05-12T09:47:43.795Z,91.34
2017-05-12T09:48:56.790Z,91.63
2017-05-12T09:50:08.796Z,91.34
2017-05-12T09:51:21.297Z,91.67
2017-05-12T09:52:34.296Z,91.91
2017-05-12T09:53:45.807Z,92.1
2017-05-12T09:54:58.803Z,91.96
2017-05-12T09:56:11.303Z,91.72
2017-05-12T09:57:24.303Z,91.82
2017-05-12T09:58:36.504Z,91.67
2017-05-12T09:59:49.514Z,92.15
2017-05-12T10:01:02.013Z,92.06
2017-05-12T10:02:14.513Z,92.39
2017-05-12T10:03:27.015Z,92.2
2017-05-12T10:04:40.310Z,92.3
2017-05-12T10:05:52.811Z,92.3
2017-05-12T10:07:05.808Z,91.82
2017-05-12T10:08:18.807Z,92.49
2017-05-12T10:09:31.809Z,92.87
2017-05-12T10:10:44.802Z,92.68
2017-05-12T10:11:57.301Z,92.44
2017-05-12T10:13:10.298Z,91.82
2017-05-12T10:14:22.796Z,92.35
2017-05-12T10:15:35.790Z,92.3
2017-05-12T10:16:48.786Z,92.2
2017-05-12T10:18:01.286Z,91.82
2017-05-12T10:19:14.286Z,91.91
2017-05-12T10:20:27.285Z,91.82
2017-05-12T10:21:40.281Z,91.82
2017-05-12T10:22:53.280Z,92.01
2017-05-12T10:24:06.278Z,91.91
2017-05-12T10:25:19.275Z,92.01
2017-05-12T10:26:31.127Z,91.91
2017-05-12T10:27:44.121Z,91.91
2017-05-12T10:28:56.624Z,91.72
2017-05-12T10:30:09.642Z,91.72
2017-05-12T10:31:22.647Z,92.01
2017-05-12T10:32:35.656Z,91.91
2017-05-12T10:33:48.143Z,91.43
2017-05-12T10:35:01.126Z,91.14
2017-05-12T10:36:14.108Z,91.34
2017-05-12T10:37:27.287Z,91.34
2017-05-12T10:38:39.773Z,91.63
2017-05-12T10:39:52.264Z,92.2
2017-05-12T10:41:05.252Z,91.34
2017-05-12T10:42:18.236Z,91.63
2017-05-12T10:43:30.721Z,91.24
2017-05-12T10:44:43.204Z,91.82
2017-05-12T10:45:56.185Z,91.82
2017-05-12T10:47:09.167Z,91.34
2017-05-12T10:48:22.447Z,91.34
2017-05-12T10:49:34.937Z,91.34
2017-05-12T10:50:47.917Z,91.82
2017-05-12T10:51:59.909Z,92.3
2017-05-12T10:53:12.900Z,93.21
2017-05-12T10:54:25.386Z,93.26
2017-05-12T10:55:38.371Z,92.58
2017-05-12T10:56:50.860Z,92.3
2017-05-12T10:58:03.839Z,92.49
2017-05-12T10:59:16.554Z,92.39
2017-05-12T11:00:29.040Z,92.1
2017-05-12T11:01:41.526Z,91.91
2017-05-12T11:02:54.015Z,92.1
2017-05-12T11:04:06.500Z,91.82
2017-05-12T11:05:19.481Z,91.28
2017-05-12T11:06:31.968Z,90.23
2017-05-12T11:07:44.949Z,90.76
2017-05-12T11:08:57.434Z,90.86
2017-05-12T11:10:10.115Z,91.14
2017-05-12T11:11:22.600Z,90.67
2017-05-12T11:12:35.594Z,91.14
2017-05-12T11:13:48.576Z,91.34
2017-05-12T11:15:01.758Z,90.86
2017-05-12T11:16:13.751Z,90.67
2017-05-12T11:17:26.739Z,90.86
2017-05-12T11:18:39.244Z,90.95
2017-05-12T11:19:51.799Z,90.57
2017-05-12T11:21:04.804Z,90.9
2017-05-12T11:22:17.318Z,91
2017-05-12T11:23:29.823Z,90.81
2017-05-12T11:24:42.819Z,90.61
2017-05-12T11:25:56.015Z,90.61
2017-05-12T11:27:08.988Z,89.37
2017-05-12T11:28:21.412Z,89.37
2017-05-12T11:29:34.335Z,88.6
2017-05-12T11:30:46.768Z,89.18
2017-05-12T11:31:59.884Z,89.27
2017-05-12T11:33:12.800Z,88.07
2017-05-12T11:34:25.720Z,87.49
2017-05-12T11:35:38.636Z,87.3
2017-05-12T11:37:05.106Z,86.92
2017-05-12T11:38:18.021Z,86.92
2017-05-12T11:39:30.938Z,86.96
2017-05-12T11:40:43.856Z,85.91
2017-05-12T11:41:56.584Z,84.75
2017-05-12T11:43:09.509Z,84.95
2017-05-12T11:44:21.984Z,84.7
2017-05-12T11:45:34.907Z,83.16
2017-05-12T11:46:47.829Z,82.68
2017-05-12T11:48:01.548Z,82.87
2017-05-12T11:49:14.464Z,82.92
2017-05-12T11:50:27.382Z,81.19
2017-05-12T11:51:40.299Z,81.09
2017-05-12T11:52:53.222Z,79.75
2017-05-12T11:54:06.142Z,79.02
2017-05-12T11:55:18.084Z,79.21
2017-05-12T11:56:31.003Z,77.76
2017-05-12T11:57:43.433Z,78.83
2017-05-12T11:58:56.350Z,79.21
2017-05-12T12:00:09.267Z,78.73
2017-05-12T12:01:21.726Z,78.25
2017-05-12T12:02:34.221Z,77.9
2017-05-12T12:03:46.430Z,76.94
2017-05-12T12:04:59.413Z,76.56
2017-05-12T12:06:12.397Z,76.36
2017-05-12T12:07:25.423Z,77.42
2017-05-12T12:08:38.408Z,78.09
2017-05-12T12:09:50.599Z,76.36
2017-05-12T12:11:03.583Z,75.54
2017-05-12T12:12:16.576Z,75.63
2017-05-12T12:13:29.558Z,75.73
2017-05-12T12:14:42.542Z,74.09
2017-05-12T12:15:55.521Z,74.09
2017-05-12T12:17:08.505Z,74.22
2017-05-12T12:18:20.993Z,73.94
2017-05-12T12:19:33.977Z,73.74
2017-05-12T12:20:46.325Z,73.84
2017-05-12T12:21:59.306Z,73.16
2017-05-12T12:23:11.793Z,73.16
2017-05-12T12:24:24.776Z,72.05
2017-05-12T12:25:37.758Z,71.18
2017-05-12T12:26:50.745Z,71.95
2017-05-12T12:28:02.740Z,70.92
2017-05-12T12:29:15.723Z,71.12
2017-05-12T12:30:28.706Z,70.64
2017-05-12T12:31:41.987Z,70.92
2017-05-12T12:32:54.479Z,71.31
2017-05-12T12:34:07.467Z,71.02
2017-05-12T12:35:20.452Z,69.67
2017-05-12T12:36:32.446Z,68.93
2017-05-12T12:37:44.934Z,68.07
2017-05-12T12:38:57.919Z,68.26
2017-05-12T12:40:11.115Z,67
2017-05-12T12:41:24.100Z,67.68
2017-05-12T12:42:37.086Z,67.3
2017-05-12T12:43:50.072Z,68.84
2017-05-12T12:45:03.057Z,69.03
2017-05-12T12:46:16.042Z,68.93
2017-05-12T12:47:28.531Z,68.13
2017-05-12T12:48:41.512Z,68.9
2017-05-12T12:49:54.498Z,68.45
2017-05-12T12:51:07.595Z,69.19
2017-05-12T12:52:20.089Z,69.19
2017-05-12T12:53:32.085Z,68.42
2017-05-12T12:54:45.073Z,68.9
2017-05-12T12:55:58.059Z,68.71
2017-05-12T12:57:10.548Z,67.97
2017-05-12T12:58:23.532Z,67.2
2017-05-12T12:59:36.515Z,67.33
2017-05-12T13:00:49.503Z,67.58
2017-05-12T13:02:01.994Z,67.62
2017-05-12T13:03:14.485Z,67.52
2017-05-12T13:04:27.475Z,66.75
2017-05-12T13:05:40.464Z,65.72
2017-05-12T13:06:53.451Z,65.14
2017-05-12T13:08:06.637Z,65.43
2017-05-12T13:09:19.135Z,64.66
2017-05-12T13:10:32.109Z,64.56
2017-05-12T13:11:45.018Z,64.56
2017-05-12T13:12:57.919Z,64.95
2017-05-12T13:14:09.843Z,65.24
2017-05-12T13:15:21.769Z,64.37
2017-05-12T13:16:34.185Z,64.47
2017-05-12T13:17:46.505Z,64.92
2017-05-12T13:18:59.404Z,64.63
2017-05-12T13:20:12.311Z,64.92
2017-05-12T13:21:25.211Z,65.4
2017-05-12T13:22:38.119Z,65.01
2017-05-12T13:23:51.235Z,64.37
2017-05-12T13:25:04.140Z,64.72
2017-05-12T13:26:16.070Z,64.28
2017-05-12T13:27:28.971Z,62.82
2017-05-12T13:28:41.874Z,62.63
2017-05-12T13:29:54.286Z,63.02
2017-05-12T13:31:07.189Z,62.44
2017-05-12T13:32:18.634Z,62.63
2017-05-12T13:33:31.540Z,62.73
2017-05-12T13:34:44.443Z,62.63
2017-05-12T13:35:57.343Z,63.12
2017-05-12T13:37:10.244Z,63.98
2017-05-12T13:38:22.659Z,64.18
2017-05-12T13:39:35.567Z,63.89
2017-05-12T13:40:47.205Z,64.47
2017-05-12T13:42:00.109Z,63.79
2017-05-12T13:43:13.020Z,64.47
2017-05-12T13:44:38.507Z,63.98
2017-05-12T13:45:51.419Z,62.57
2017-05-12T13:47:04.331Z,62.66
2017-05-12T13:48:16.742Z,62.4
2017-05-12T13:49:29.657Z,61.51
2017-05-12T13:50:42.092Z,61.63
2017-05-12T13:51:55.039Z,60.76
2017-05-12T13:53:07.944Z,60.28
2017-05-12T13:54:21.093Z,60.57
2017-05-12T13:55:33.514Z,60.09
2017-05-12T13:56:45.940Z,60.47
2017-05-12T13:57:58.851Z,60.18
2017-05-12T13:59:11.774Z,61.05
2017-05-12T14:00:24.187Z,60.18
2017-05-12T14:01:37.297Z,60.86
2017-05-12T14:02:49.215Z,60.28
2017-05-12T14:04:01.624Z,59.31
2017-05-12T14:05:14.528Z,58.09
2017-05-12T14:06:26.991Z,58.28
2017-05-12T14:07:40.096Z,58.09
2017-05-12T14:08:53.018Z,58.18
2017-05-12T14:10:05.924Z,58.37
2017-05-12T14:11:17.843Z,58.86
2017-05-12T14:12:30.266Z,58.95
2017-05-12T14:13:43.169Z,58.86
2017-05-12T14:14:56.071Z,58.76
2017-05-12T14:16:08.980Z,58.09
2017-05-12T14:17:21.400Z,57.51
2017-05-12T14:18:34.305Z,57.54
2017-05-12T14:19:46.720Z,58.12
2017-05-12T14:20:59.633Z,57.92
2017-05-12T14:22:12.048Z,57.92
2017-05-12T14:23:24.468Z,57.82
2017-05-12T14:24:36.880Z,58.4
2017-05-12T14:25:49.797Z,57.34
2017-05-12T14:27:02.207Z,57.34
2017-05-12T14:28:14.621Z,57.73
2017-05-12T14:29:27.033Z,57.34
2017-05-12T14:30:39.938Z,57.44
2017-05-12T14:31:52.850Z,57.54
2017-05-12T14:33:05.751Z,57.34
2017-05-12T14:34:18.656Z,57.54
2017-05-12T14:35:31.560Z,56.95
2017-05-12T14:36:43.976Z,56.09
2017-05-12T14:37:56.883Z,56.02
2017-05-12T14:39:09.338Z,56.4
2017-05-12T14:40:21.754Z,56.7
2017-05-12T14:41:34.171Z,57.54
2017-05-12T14:42:46.105Z,56.95
2017-05-12T14:43:59.011Z,57.24
2017-05-12T14:45:11.917Z,57.99
2017-05-12T14:46:23.840Z,58.15
2017-05-12T14:47:36.743Z,57.77
2017-05-12T14:48:49.645Z,58.15
2017-05-12T14:50:02.058Z,57.7
2017-05-12T14:51:14.479Z,57.19
2017-05-12T14:52:27.388Z,57.09
2017-05-12T14:53:40.287Z,57.67
2017-05-12T14:54:53.188Z,58.45
2017-05-12T14:56:06.308Z,59.19
2017-05-12T14:57:18.231Z,59.96
2017-05-12T14:58:31.139Z,60.16
2017-05-12T14:59:44.046Z,60.16
2017-05-12T15:00:56.951Z,60.44
2017-05-12T15:02:09.359Z,60.99
2017-05-12T15:03:21.771Z,61.28
2017-05-12T15:04:34.717Z,60.89
2017-05-12T15:05:47.133Z,61.77
2017-05-12T15:07:00.333Z,62.44
2017-05-12T15:08:13.243Z,62.63
2017-05-12T15:09:26.152Z,62.73
2017-05-12T15:10:39.055Z,63.02
2017-05-12T15:11:51.480Z,62.63
2017-05-12T15:13:04.393Z,62.82
2017-05-12T15:14:16.805Z,62.63
2017-05-12T15:15:29.705Z,62.63
2017-05-12T15:16:42.123Z,62.82
2017-05-12T15:17:54.745Z,61.38
2017-05-12T15:19:07.647Z,61.47
2017-05-12T15:20:20.551Z,62.12
2017-05-12T15:21:32.960Z,62.51
2017-05-12T15:22:45.867Z,62.7
2017-05-12T15:23:58.484Z,62.51
2017-05-12T15:25:11.386Z,62.89
2017-05-12T15:26:24.286Z,62.41
2017-05-12T15:27:37.186Z,62.6
2017-05-12T15:28:49.814Z,63.09
2017-05-12T15:30:02.713Z,62.89
2017-05-12T15:31:15.122Z,62.63
2017-05-12T15:32:28.031Z,62.89
2017-05-12T15:33:39.955Z,63.09
2017-05-12T15:34:53.067Z,62.6
2017-05-12T15:36:05.971Z,63.18
2017-05-12T15:37:18.383Z,63.02
2017-05-12T15:38:31.286Z,62.73
2017-05-12T15:39:43.705Z,61.47
2017-05-12T15:40:56.611Z,62.05